sensor_id;sensor_type;location;lat;lon;timestamp;P1;durP1;ratioP1;P2;durP2;ratioP2
73575;SDS011;61859;49.204;8.140;2023-06-22T00:00:55;4.50;;;3.83;;
73575;SDS011;61859;49.204;8.140;2023-06-22T00:03:22;5.03;;;4.10;;
73575;SDS011;61859;49.204;8.140;2023-06-22T00:05:49;5.57;;;4.43;;
73575;SDS011;61859;49.204;8.140;2023-06-22T00:08:16;4.83;;;3.50;;
73575;SDS011;61859;49.204;8.140;2023-06-22T00:10:42;4.20;;;3.50;;
73575;SDS011;61859;49.204;8.140;2023-06-22T00:13:08;4.13;;;3.73;;
73575;SDS011;61859;49.204;8.140;2023-06-22T00:15:35;4.87;;;4.03;;
73575;SDS011;61859;49.204;8.140;2023-06-22T00:18:02;5.00;;;3.73;;
73575;SDS011;61859;49.204;8.140;2023-06-22T00:20:27;3.87;;;3.40;;
73575;SDS011;61859;49.204;8.140;2023-06-22T00:22:54;3.90;;;3.50;;
73575;SDS011;61859;49.204;8.140;2023-06-22T00:25:21;3.43;;;3.13;;
73575;SDS011;61859;49.204;8.140;2023-06-22T00:27:47;4.67;;;3.80;;
73575;SDS011;61859;49.204;8.140;2023-06-22T00:30:14;21.27;;;7.63;;
73575;SDS011;61859;49.204;8.140;2023-06-22T00:32:41;13.40;;;5.40;;
73575;SDS011;61859;49.204;8.140;2023-06-22T00:35:07;11.67;;;4.70;;
73575;SDS011;61859;49.204;8.140;2023-06-22T00:37:32;9.30;;;4.70;;
73575;SDS011;61859;49.204;8.140;2023-06-22T00:39:58;7.07;;;4.00;;
73575;SDS011;61859;49.204;8.140;2023-06-22T00:42:23;5.10;;;4.33;;
73575;SDS011;61859;49.204;8.140;2023-06-22T00:44:49;6.03;;;4.23;;
73575;SDS011;61859;49.204;8.140;2023-06-22T00:47:15;5.27;;;4.17;;
73575;SDS011;61859;49.204;8.140;2023-06-22T00:49:42;6.30;;;4.53;;
73575;SDS011;61859;49.204;8.140;2023-06-22T00:52:08;7.50;;;5.03;;
73575;SDS011;61859;49.204;8.140;2023-06-22T00:54:38;5.80;;;4.63;;
73575;SDS011;61859;49.204;8.140;2023-06-22T00:57:05;7.77;;;5.07;;
73575;SDS011;61859;49.204;8.140;2023-06-22T00:59:35;7.87;;;4.77;;
73575;SDS011;61859;49.204;8.140;2023-06-22T01:02:01;6.50;;;4.47;;
73575;SDS011;61859;49.204;8.140;2023-06-22T01:04:34;6.23;;;4.57;;
73575;SDS011;61859;49.204;8.140;2023-06-22T01:12:33;7.27;;;4.60;;
73575;SDS011;61859;49.204;8.140;2023-06-22T01:15:14;4.87;;;4.37;;
73575;SDS011;61859;49.204;8.140;2023-06-22T01:17:45;7.43;;;4.60;;
73575;SDS011;61859;49.204;8.140;2023-06-22T01:20:14;8.27;;;4.70;;
73575;SDS011;61859;49.204;8.140;2023-06-22T01:25:47;5.67;;;4.57;;
73575;SDS011;61859;49.204;8.140;2023-06-22T01:31:18;5.77;;;4.73;;
73575;SDS011;61859;49.204;8.140;2023-06-22T01:33:47;5.20;;;4.03;;
73575;SDS011;61859;49.204;8.140;2023-06-22T01:36:16;7.57;;;5.00;;
73575;SDS011;61859;49.204;8.140;2023-06-22T01:38:42;6.73;;;4.70;;
73575;SDS011;61859;49.204;8.140;2023-06-22T01:41:10;8.83;;;4.80;;
73575;SDS011;61859;49.204;8.140;2023-06-22T01:43:35;7.47;;;5.03;;
73575;SDS011;61859;49.204;8.140;2023-06-22T01:46:02;9.73;;;4.93;;
73575;SDS011;61859;49.204;8.140;2023-06-22T01:48:28;7.77;;;4.97;;
73575;SDS011;61859;49.204;8.140;2023-06-22T01:50:54;5.23;;;4.73;;
73575;SDS011;61859;49.204;8.140;2023-06-22T01:53:23;6.40;;;4.83;;
73575;SDS011;61859;49.204;8.140;2023-06-22T01:55:50;5.67;;;4.37;;
73575;SDS011;61859;49.204;8.140;2023-06-22T01:58:15;5.50;;;4.70;;
73575;SDS011;61859;49.204;8.140;2023-06-22T02:00:44;5.53;;;4.70;;
73575;SDS011;61859;49.204;8.140;2023-06-22T02:03:20;5.07;;;4.57;;
73575;SDS011;61859;49.204;8.140;2023-06-22T02:05:52;6.07;;;4.67;;
73575;SDS011;61859;49.204;8.140;2023-06-22T02:08:26;6.20;;;4.97;;
73575;SDS011;61859;49.204;8.140;2023-06-22T02:10:55;5.17;;;4.67;;
73575;SDS011;61859;49.204;8.140;2023-06-22T02:13:23;5.93;;;4.83;;
73575;SDS011;61859;49.204;8.140;2023-06-22T02:15:50;5.60;;;4.90;;
73575;SDS011;61859;49.204;8.140;2023-06-22T02:18:16;6.93;;;5.07;;
73575;SDS011;61859;49.204;8.140;2023-06-22T02:20:42;5.63;;;4.93;;
73575;SDS011;61859;49.204;8.140;2023-06-22T02:23:07;8.63;;;4.77;;
73575;SDS011;61859;49.204;8.140;2023-06-22T02:25:33;7.20;;;5.17;;
73575;SDS011;61859;49.204;8.140;2023-06-22T02:28:00;5.80;;;4.57;;
73575;SDS011;61859;49.204;8.140;2023-06-22T02:30:26;6.30;;;4.80;;
73575;SDS011;61859;49.204;8.140;2023-06-22T02:32:51;6.00;;;4.70;;
73575;SDS011;61859;49.204;8.140;2023-06-22T02:35:23;5.23;;;4.73;;
73575;SDS011;61859;49.204;8.140;2023-06-22T02:37:50;7.17;;;4.83;;
73575;SDS011;61859;49.204;8.140;2023-06-22T02:40:16;6.43;;;4.73;;
73575;SDS011;61859;49.204;8.140;2023-06-22T02:42:42;6.37;;;4.57;;
73575;SDS011;61859;49.204;8.140;2023-06-22T02:45:08;6.90;;;5.17;;
73575;SDS011;61859;49.204;8.140;2023-06-22T02:47:34;5.40;;;4.47;;
73575;SDS011;61859;49.204;8.140;2023-06-22T02:49:59;5.60;;;5.10;;
73575;SDS011;61859;49.204;8.140;2023-06-22T02:52:26;7.10;;;5.60;;
73575;SDS011;61859;49.204;8.140;2023-06-22T02:54:51;6.03;;;5.00;;
73575;SDS011;61859;49.204;8.140;2023-06-22T02:57:17;9.27;;;4.97;;
73575;SDS011;61859;49.204;8.140;2023-06-22T02:59:43;6.00;;;5.30;;
73575;SDS011;61859;49.204;8.140;2023-06-22T03:02:08;6.70;;;5.17;;
73575;SDS011;61859;49.204;8.140;2023-06-22T03:04:34;6.50;;;5.20;;
73575;SDS011;61859;49.204;8.140;2023-06-22T03:07:00;11.03;;;5.20;;
73575;SDS011;61859;49.204;8.140;2023-06-22T03:09:27;7.20;;;5.47;;
73575;SDS011;61859;49.204;8.140;2023-06-22T03:11:53;6.60;;;5.20;;
73575;SDS011;61859;49.204;8.140;2023-06-22T03:14:19;5.80;;;5.07;;
73575;SDS011;61859;49.204;8.140;2023-06-22T03:16:45;5.73;;;5.07;;
73575;SDS011;61859;49.204;8.140;2023-06-22T03:19:10;6.27;;;5.10;;
73575;SDS011;61859;49.204;8.140;2023-06-22T03:21:36;6.20;;;5.47;;
73575;SDS011;61859;49.204;8.140;2023-06-22T03:24:06;7.17;;;4.73;;
73575;SDS011;61859;49.204;8.140;2023-06-22T03:26:32;6.40;;;5.03;;
73575;SDS011;61859;49.204;8.140;2023-06-22T03:28:58;6.07;;;5.40;;
73575;SDS011;61859;49.204;8.140;2023-06-22T03:31:24;8.43;;;5.87;;
73575;SDS011;61859;49.204;8.140;2023-06-22T03:33:50;6.67;;;4.73;;
73575;SDS011;61859;49.204;8.140;2023-06-22T03:36:16;6.97;;;5.20;;
73575;SDS011;61859;49.204;8.140;2023-06-22T03:38:45;6.97;;;5.53;;
73575;SDS011;61859;49.204;8.140;2023-06-22T03:41:11;6.60;;;4.93;;
73575;SDS011;61859;49.204;8.140;2023-06-22T03:43:37;8.53;;;5.23;;
73575;SDS011;61859;49.204;8.140;2023-06-22T03:46:03;6.63;;;5.00;;
73575;SDS011;61859;49.204;8.140;2023-06-22T03:48:28;6.10;;;4.53;;
73575;SDS011;61859;49.204;8.140;2023-06-22T03:50:54;6.00;;;5.00;;
73575;SDS011;61859;49.204;8.140;2023-06-22T03:53:19;5.27;;;4.77;;
73575;SDS011;61859;49.204;8.140;2023-06-22T03:55:48;7.20;;;5.40;;
73575;SDS011;61859;49.204;8.140;2023-06-22T03:58:15;7.20;;;5.43;;
73575;SDS011;61859;49.204;8.140;2023-06-22T04:00:41;8.33;;;5.20;;
73575;SDS011;61859;49.204;8.140;2023-06-22T04:03:07;9.00;;;5.57;;
73575;SDS011;61859;49.204;8.140;2023-06-22T04:05:33;5.83;;;5.20;;
73575;SDS011;61859;49.204;8.140;2023-06-22T04:07:58;5.47;;;4.80;;
73575;SDS011;61859;49.204;8.140;2023-06-22T04:10:24;5.83;;;5.10;;
73575;SDS011;61859;49.204;8.140;2023-06-22T04:12:49;8.37;;;5.30;;
73575;SDS011;61859;49.204;8.140;2023-06-22T04:15:15;7.60;;;5.53;;
73575;SDS011;61859;49.204;8.140;2023-06-22T04:17:40;6.30;;;5.70;;
73575;SDS011;61859;49.204;8.140;2023-06-22T04:20:06;6.57;;;5.57;;
73575;SDS011;61859;49.204;8.140;2023-06-22T04:22:32;6.27;;;5.17;;
73575;SDS011;61859;49.204;8.140;2023-06-22T04:24:58;7.83;;;5.77;;
73575;SDS011;61859;49.204;8.140;2023-06-22T04:27:23;9.60;;;6.37;;
73575;SDS011;61859;49.204;8.140;2023-06-22T04:29:49;11.00;;;6.20;;
73575;SDS011;61859;49.204;8.140;2023-06-22T04:32:15;7.90;;;6.37;;
73575;SDS011;61859;49.204;8.140;2023-06-22T04:34:41;10.43;;;6.37;;
73575;SDS011;61859;49.204;8.140;2023-06-22T04:37:07;9.17;;;7.00;;
73575;SDS011;61859;49.204;8.140;2023-06-22T04:39:33;8.90;;;7.13;;
73575;SDS011;61859;49.204;8.140;2023-06-22T04:41:58;8.70;;;6.67;;
73575;SDS011;61859;49.204;8.140;2023-06-22T04:44:27;10.83;;;7.00;;
73575;SDS011;61859;49.204;8.140;2023-06-22T04:46:54;10.10;;;7.10;;
73575;SDS011;61859;49.204;8.140;2023-06-22T04:49:25;10.87;;;7.33;;
73575;SDS011;61859;49.204;8.140;2023-06-22T04:51:57;9.87;;;6.80;;
73575;SDS011;61859;49.204;8.140;2023-06-22T04:54:23;7.67;;;6.83;;
73575;SDS011;61859;49.204;8.140;2023-06-22T04:56:49;10.63;;;7.13;;
73575;SDS011;61859;49.204;8.140;2023-06-22T04:59:24;8.80;;;7.23;;
73575;SDS011;61859;49.204;8.140;2023-06-22T05:01:53;9.43;;;7.83;;
73575;SDS011;61859;49.204;8.140;2023-06-22T05:04:19;12.17;;;7.43;;
73575;SDS011;61859;49.204;8.140;2023-06-22T05:06:44;9.53;;;7.80;;
73575;SDS011;61859;49.204;8.140;2023-06-22T05:09:10;8.07;;;7.13;;
73575;SDS011;61859;49.204;8.140;2023-06-22T05:11:37;10.23;;;6.63;;
73575;SDS011;61859;49.204;8.140;2023-06-22T05:14:02;7.20;;;6.50;;
73575;SDS011;61859;49.204;8.140;2023-06-22T05:16:28;8.80;;;7.30;;
73575;SDS011;61859;49.204;8.140;2023-06-22T05:18:54;8.77;;;6.80;;
73575;SDS011;61859;49.204;8.140;2023-06-22T05:21:24;8.30;;;7.10;;
73575;SDS011;61859;49.204;8.140;2023-06-22T05:23:51;9.10;;;7.20;;
73575;SDS011;61859;49.204;8.140;2023-06-22T05:26:18;10.50;;;6.57;;
73575;SDS011;61859;49.204;8.140;2023-06-22T05:28:44;9.97;;;7.00;;
73575;SDS011;61859;49.204;8.140;2023-06-22T05:31:11;11.13;;;7.20;;
73575;SDS011;61859;49.204;8.140;2023-06-22T05:33:38;9.17;;;7.37;;
73575;SDS011;61859;49.204;8.140;2023-06-22T05:36:03;9.13;;;7.67;;
73575;SDS011;61859;49.204;8.140;2023-06-22T05:38:30;10.37;;;8.50;;
73575;SDS011;61859;49.204;8.140;2023-06-22T05:40:56;14.33;;;8.03;;
73575;SDS011;61859;49.204;8.140;2023-06-22T05:43:21;8.73;;;7.37;;
73575;SDS011;61859;49.204;8.140;2023-06-22T05:45:47;12.67;;;8.07;;
73575;SDS011;61859;49.204;8.140;2023-06-22T05:48:12;12.00;;;8.70;;
73575;SDS011;61859;49.204;8.140;2023-06-22T05:50:38;8.93;;;7.93;;
73575;SDS011;61859;49.204;8.140;2023-06-22T05:53:03;12.53;;;7.83;;
73575;SDS011;61859;49.204;8.140;2023-06-22T05:55:29;10.63;;;8.67;;
73575;SDS011;61859;49.204;8.140;2023-06-22T05:57:54;12.87;;;7.53;;
73575;SDS011;61859;49.204;8.140;2023-06-22T06:00:20;9.17;;;8.17;;
73575;SDS011;61859;49.204;8.140;2023-06-22T06:02:47;8.07;;;7.27;;
73575;SDS011;61859;49.204;8.140;2023-06-22T06:05:14;9.43;;;7.93;;
73575;SDS011;61859;49.204;8.140;2023-06-22T06:07:40;10.73;;;7.27;;
73575;SDS011;61859;49.204;8.140;2023-06-22T06:10:06;9.07;;;7.13;;
73575;SDS011;61859;49.204;8.140;2023-06-22T06:12:32;8.90;;;7.68;;
73575;SDS011;61859;49.204;8.140;2023-06-22T06:14:58;8.55;;;7.53;;
73575;SDS011;61859;49.204;8.140;2023-06-22T06:17:23;8.25;;;7.03;;
73575;SDS011;61859;49.204;8.140;2023-06-22T06:19:49;8.48;;;7.47;;
73575;SDS011;61859;49.204;8.140;2023-06-22T06:22:15;8.45;;;7.50;;
73575;SDS011;61859;49.204;8.140;2023-06-22T06:24:40;9.85;;;7.80;;
73575;SDS011;61859;49.204;8.140;2023-06-22T06:27:06;7.80;;;7.00;;
73575;SDS011;61859;49.204;8.140;2023-06-22T06:29:31;7.60;;;6.63;;
73575;SDS011;61859;49.204;8.140;2023-06-22T06:31:57;9.85;;;6.85;;
73575;SDS011;61859;49.204;8.140;2023-06-22T06:34:23;9.23;;;7.43;;
73575;SDS011;61859;49.204;8.140;2023-06-22T06:36:48;8.07;;;7.28;;
73575;SDS011;61859;49.204;8.140;2023-06-22T06:39:14;10.10;;;7.05;;
73575;SDS011;61859;49.204;8.140;2023-06-22T06:41:41;8.25;;;6.80;;
73575;SDS011;61859;49.204;8.140;2023-06-22T06:44:06;9.50;;;6.70;;
73575;SDS011;61859;49.204;8.140;2023-06-22T06:46:32;7.22;;;6.53;;
73575;SDS011;61859;49.204;8.140;2023-06-22T06:48:57;7.07;;;6.38;;
73575;SDS011;61859;49.204;8.140;2023-06-22T06:51:23;8.30;;;6.93;;
73575;SDS011;61859;49.204;8.140;2023-06-22T06:53:48;8.65;;;6.53;;
73575;SDS011;61859;49.204;8.140;2023-06-22T06:56:14;8.52;;;7.15;;
73575;SDS011;61859;49.204;8.140;2023-06-22T06:58:42;8.80;;;7.15;;
73575;SDS011;61859;49.204;8.140;2023-06-22T07:01:10;8.55;;;6.80;;
73575;SDS011;61859;49.204;8.140;2023-06-22T07:03:38;6.93;;;6.22;;
73575;SDS011;61859;49.204;8.140;2023-06-22T07:06:04;8.98;;;6.07;;
73575;SDS011;61859;49.204;8.140;2023-06-22T07:08:29;8.93;;;6.53;;
73575;SDS011;61859;49.204;8.140;2023-06-22T07:10:55;7.43;;;5.63;;
73575;SDS011;61859;49.204;8.140;2023-06-22T07:13:21;8.65;;;6.07;;
73575;SDS011;61859;49.204;8.140;2023-06-22T07:15:46;8.88;;;6.15;;
73575;SDS011;61859;49.204;8.140;2023-06-22T07:18:12;6.85;;;6.15;;
73575;SDS011;61859;49.204;8.140;2023-06-22T07:20:37;6.20;;;5.60;;
73575;SDS011;61859;49.204;8.140;2023-06-22T07:23:04;6.95;;;5.32;;
73575;SDS011;61859;49.204;8.140;2023-06-22T07:25:30;9.73;;;4.80;;
73575;SDS011;61859;49.204;8.140;2023-06-22T07:28:06;7.28;;;5.15;;
73575;SDS011;61859;49.204;8.140;2023-06-22T07:30:32;6.40;;;5.13;;
73575;SDS011;61859;49.204;8.140;2023-06-22T07:32:59;5.00;;;4.60;;
73575;SDS011;61859;49.204;8.140;2023-06-22T07:35:29;6.22;;;4.85;;
73575;SDS011;61859;49.204;8.140;2023-06-22T07:37:55;5.65;;;4.40;;
73575;SDS011;61859;49.204;8.140;2023-06-22T07:40:21;5.30;;;4.57;;
73575;SDS011;61859;49.204;8.140;2023-06-22T07:42:46;5.55;;;5.05;;
73575;SDS011;61859;49.204;8.140;2023-06-22T07:45:13;5.50;;;4.95;;
73575;SDS011;61859;49.204;8.140;2023-06-22T07:47:39;4.90;;;4.50;;
73575;SDS011;61859;49.204;8.140;2023-06-22T07:50:05;4.80;;;4.35;;
73575;SDS011;61859;49.204;8.140;2023-06-22T07:52:31;6.72;;;5.20;;
73575;SDS011;61859;49.204;8.140;2023-06-22T07:54:57;5.15;;;4.40;;
73575;SDS011;61859;49.204;8.140;2023-06-22T07:57:22;6.72;;;4.00;;
73575;SDS011;61859;49.204;8.140;2023-06-22T07:59:56;5.20;;;3.95;;
73575;SDS011;61859;49.204;8.140;2023-06-22T08:02:23;5.55;;;4.65;;
73575;SDS011;61859;49.204;8.140;2023-06-22T08:04:49;5.75;;;4.50;;
73575;SDS011;61859;49.204;8.140;2023-06-22T08:07:14;4.78;;;4.13;;
73575;SDS011;61859;49.204;8.140;2023-06-22T08:09:42;6.85;;;4.03;;
73575;SDS011;61859;49.204;8.140;2023-06-22T08:12:12;4.20;;;3.80;;
73575;SDS011;61859;49.204;8.140;2023-06-22T08:14:38;5.72;;;4.45;;
73575;SDS011;61859;49.204;8.140;2023-06-22T08:17:04;5.05;;;4.40;;
73575;SDS011;61859;49.204;8.140;2023-06-22T08:19:29;5.30;;;3.75;;
73575;SDS011;61859;49.204;8.140;2023-06-22T08:21:55;5.35;;;3.78;;
73575;SDS011;61859;49.204;8.140;2023-06-22T08:24:21;5.25;;;4.30;;
73575;SDS011;61859;49.204;8.140;2023-06-22T08:26:46;4.28;;;3.85;;
73575;SDS011;61859;49.204;8.140;2023-06-22T08:29:12;4.75;;;4.28;;
73575;SDS011;61859;49.204;8.140;2023-06-22T08:31:37;4.43;;;4.03;;
73575;SDS011;61859;49.204;8.140;2023-06-22T08:34:03;4.20;;;3.83;;
73575;SDS011;61859;49.204;8.140;2023-06-22T08:36:28;5.05;;;4.55;;
73575;SDS011;61859;49.204;8.140;2023-06-22T08:38:57;4.97;;;4.38;;
73575;SDS011;61859;49.204;8.140;2023-06-22T08:41:26;4.82;;;4.15;;
73575;SDS011;61859;49.204;8.140;2023-06-22T08:43:52;6.40;;;4.00;;
73575;SDS011;61859;49.204;8.140;2023-06-22T08:46:18;4.60;;;4.05;;
73575;SDS011;61859;49.204;8.140;2023-06-22T08:48:47;8.38;;;4.63;;
73575;SDS011;61859;49.204;8.140;2023-06-22T08:51:12;5.50;;;4.47;;
73575;SDS011;61859;49.204;8.140;2023-06-22T08:53:38;4.45;;;3.80;;
73575;SDS011;61859;49.204;8.140;2023-06-22T08:56:04;4.25;;;3.85;;
73575;SDS011;61859;49.204;8.140;2023-06-22T08:58:30;4.20;;;3.80;;
73575;SDS011;61859;49.204;8.140;2023-06-22T09:00:55;4.40;;;4.00;;
73575;SDS011;61859;49.204;8.140;2023-06-22T09:03:21;4.40;;;3.88;;
73575;SDS011;61859;49.204;8.140;2023-06-22T09:05:46;6.32;;;3.63;;
73575;SDS011;61859;49.204;8.140;2023-06-22T09:08:12;6.18;;;3.85;;
73575;SDS011;61859;49.204;8.140;2023-06-22T09:10:37;5.80;;;3.72;;
73575;SDS011;61859;49.204;8.140;2023-06-22T09:13:03;5.00;;;4.03;;
73575;SDS011;61859;49.204;8.140;2023-06-22T09:15:28;5.45;;;3.88;;
73575;SDS011;61859;49.204;8.140;2023-06-22T09:17:54;5.28;;;4.10;;
73575;SDS011;61859;49.204;8.140;2023-06-22T09:20:20;4.32;;;3.92;;
73575;SDS011;61859;49.204;8.140;2023-06-22T09:22:45;6.88;;;4.50;;
73575;SDS011;61859;49.204;8.140;2023-06-22T09:25:11;5.32;;;4.18;;
73575;SDS011;61859;49.204;8.140;2023-06-22T09:27:37;4.32;;;3.78;;
73575;SDS011;61859;49.204;8.140;2023-06-22T09:30:03;4.35;;;3.95;;
73575;SDS011;61859;49.204;8.140;2023-06-22T09:32:29;8.30;;;4.25;;
73575;SDS011;61859;49.204;8.140;2023-06-22T09:34:55;7.05;;;4.25;;
73575;SDS011;61859;49.204;8.140;2023-06-22T09:37:20;4.95;;;4.03;;
73575;SDS011;61859;49.204;8.140;2023-06-22T09:39:46;6.70;;;4.00;;
73575;SDS011;61859;49.204;8.140;2023-06-22T09:42:11;6.43;;;4.28;;
73575;SDS011;61859;49.204;8.140;2023-06-22T09:44:38;5.80;;;4.05;;
73575;SDS011;61859;49.204;8.140;2023-06-22T09:47:04;5.18;;;4.28;;
73575;SDS011;61859;49.204;8.140;2023-06-22T09:49:29;5.65;;;4.22;;
73575;SDS011;61859;49.204;8.140;2023-06-22T09:51:55;6.45;;;3.83;;
73575;SDS011;61859;49.204;8.140;2023-06-22T09:54:21;8.35;;;3.97;;
73575;SDS011;61859;49.204;8.140;2023-06-22T09:56:48;4.38;;;3.97;;
73575;SDS011;61859;49.204;8.140;2023-06-22T09:59:13;4.85;;;4.35;;
73575;SDS011;61859;49.204;8.140;2023-06-22T10:01:39;6.80;;;4.50;;
73575;SDS011;61859;49.204;8.140;2023-06-22T10:04:05;4.40;;;4.00;;
73575;SDS011;61859;49.204;8.140;2023-06-22T10:06:30;4.47;;;3.38;;
73575;SDS011;61859;49.204;8.140;2023-06-22T10:08:56;6.57;;;4.13;;
73575;SDS011;61859;49.204;8.140;2023-06-22T10:11:21;4.20;;;3.42;;
73575;SDS011;61859;49.204;8.140;2023-06-22T10:13:52;6.13;;;4.30;;
73575;SDS011;61859;49.204;8.140;2023-06-22T10:16:17;8.13;;;4.15;;
73575;SDS011;61859;49.204;8.140;2023-06-22T10:18:43;4.25;;;3.40;;
73575;SDS011;61859;49.204;8.140;2023-06-22T10:21:08;4.18;;;3.75;;
73575;SDS011;61859;49.204;8.140;2023-06-22T10:23:34;5.30;;;3.88;;
73575;SDS011;61859;49.204;8.140;2023-06-22T10:25:59;4.78;;;3.60;;
73575;SDS011;61859;49.204;8.140;2023-06-22T10:28:25;3.60;;;3.30;;
73575;SDS011;61859;49.204;8.140;2023-06-22T10:30:50;7.30;;;3.58;;
73575;SDS011;61859;49.204;8.140;2023-06-22T10:33:16;5.03;;;3.70;;
73575;SDS011;61859;49.204;8.140;2023-06-22T10:35:41;5.60;;;3.53;;
73575;SDS011;61859;49.204;8.140;2023-06-22T10:38:07;8.23;;;3.83;;
73575;SDS011;61859;49.204;8.140;2023-06-22T10:40:33;6.40;;;3.40;;
73575;SDS011;61859;49.204;8.140;2023-06-22T10:42:59;4.38;;;3.28;;
73575;SDS011;61859;49.204;8.140;2023-06-22T10:45:24;4.78;;;3.72;;
73575;SDS011;61859;49.204;8.140;2023-06-22T10:47:50;5.65;;;3.47;;
73575;SDS011;61859;49.204;8.140;2023-06-22T10:50:15;4.35;;;3.95;;
73575;SDS011;61859;49.204;8.140;2023-06-22T10:52:41;6.55;;;3.95;;
73575;SDS011;61859;49.204;8.140;2023-06-22T10:55:07;3.75;;;3.10;;
73575;SDS011;61859;49.204;8.140;2023-06-22T10:57:33;5.05;;;3.67;;
73575;SDS011;61859;49.204;8.140;2023-06-22T10:59:59;5.65;;;3.80;;
73575;SDS011;61859;49.204;8.140;2023-06-22T11:02:24;4.32;;;3.50;;
73575;SDS011;61859;49.204;8.140;2023-06-22T11:04:50;4.32;;;3.30;;
73575;SDS011;61859;49.204;8.140;2023-06-22T11:07:16;6.57;;;3.65;;
73575;SDS011;61859;49.204;8.140;2023-06-22T11:09:45;4.82;;;3.83;;
73575;SDS011;61859;49.204;8.140;2023-06-22T11:12:10;4.97;;;3.22;;
73575;SDS011;61859;49.204;8.140;2023-06-22T11:14:36;7.38;;;3.70;;
73575;SDS011;61859;49.204;8.140;2023-06-22T11:17:01;4.07;;;3.63;;
73575;SDS011;61859;49.204;8.140;2023-06-22T11:19:27;4.88;;;3.55;;
73575;SDS011;61859;49.204;8.140;2023-06-22T11:21:52;5.35;;;3.70;;
73575;SDS011;61859;49.204;8.140;2023-06-22T11:24:18;6.93;;;3.65;;
73575;SDS011;61859;49.204;8.140;2023-06-22T11:26:43;4.38;;;3.75;;
73575;SDS011;61859;49.204;8.140;2023-06-22T11:29:09;4.40;;;3.97;;
73575;SDS011;61859;49.204;8.140;2023-06-22T11:31:35;4.20;;;3.80;;
73575;SDS011;61859;49.204;8.140;2023-06-22T11:34:01;6.15;;;4.05;;
73575;SDS011;61859;49.204;8.140;2023-06-22T11:36:27;4.78;;;3.78;;
73575;SDS011;61859;49.204;8.140;2023-06-22T11:38:54;7.63;;;3.97;;
73575;SDS011;61859;49.204;8.140;2023-06-22T11:41:19;5.80;;;3.58;;
73575;SDS011;61859;49.204;8.140;2023-06-22T11:43:45;4.97;;;4.00;;
73575;SDS011;61859;49.204;8.140;2023-06-22T11:46:10;7.45;;;4.65;;
73575;SDS011;61859;49.204;8.140;2023-06-22T11:48:36;6.95;;;4.00;;
73575;SDS011;61859;49.204;8.140;2023-06-22T11:51:02;5.57;;;4.15;;
73575;SDS011;61859;49.204;8.140;2023-06-22T11:53:28;4.40;;;4.00;;
73575;SDS011;61859;49.204;8.140;2023-06-22T11:55:54;6.22;;;3.97;;
73575;SDS011;61859;49.204;8.140;2023-06-22T11:58:20;4.43;;;3.70;;
73575;SDS011;61859;49.204;8.140;2023-06-22T12:00:47;5.63;;;3.72;;
73575;SDS011;61859;49.204;8.140;2023-06-22T12:03:13;6.75;;;4.13;;
73575;SDS011;61859;49.204;8.140;2023-06-22T12:05:41;5.35;;;3.92;;
73575;SDS011;61859;49.204;8.140;2023-06-22T12:08:07;4.47;;;4.07;;
73575;SDS011;61859;49.204;8.140;2023-06-22T12:10:32;4.18;;;3.72;;
73575;SDS011;61859;49.204;8.140;2023-06-22T12:12:59;6.20;;;3.92;;
73575;SDS011;61859;49.204;8.140;2023-06-22T12:15:25;5.32;;;3.97;;
73575;SDS011;61859;49.204;8.140;2023-06-22T12:17:51;4.22;;;3.83;;
73575;SDS011;61859;49.204;8.140;2023-06-22T12:20:17;5.45;;;4.72;;
73575;SDS011;61859;49.204;8.140;2023-06-22T12:22:43;12.18;;;4.13;;
73575;SDS011;61859;49.204;8.140;2023-06-22T12:25:10;5.75;;;3.78;;
73575;SDS011;61859;49.204;8.140;2023-06-22T12:27:36;5.35;;;3.60;;
73575;SDS011;61859;49.204;8.140;2023-06-22T12:30:02;6.25;;;3.90;;
73575;SDS011;61859;49.204;8.140;2023-06-22T12:32:28;5.80;;;3.72;;
73575;SDS011;61859;49.204;8.140;2023-06-22T12:34:54;6.63;;;4.05;;
73575;SDS011;61859;49.204;8.140;2023-06-22T12:37:21;6.22;;;3.45;;
73575;SDS011;61859;49.204;8.140;2023-06-22T12:39:46;4.68;;;4.13;;
73575;SDS011;61859;49.204;8.140;2023-06-22T12:42:12;5.30;;;3.90;;
73575;SDS011;61859;49.204;8.140;2023-06-22T12:44:38;6.32;;;4.15;;
73575;SDS011;61859;49.204;8.140;2023-06-22T12:47:04;4.05;;;3.65;;
73575;SDS011;61859;49.204;8.140;2023-06-22T12:49:30;5.68;;;3.65;;
73575;SDS011;61859;49.204;8.140;2023-06-22T12:51:56;6.40;;;3.75;;
73575;SDS011;61859;49.204;8.140;2023-06-22T12:54:22;5.95;;;3.78;;
73575;SDS011;61859;49.204;8.140;2023-06-22T12:56:47;5.63;;;4.05;;
73575;SDS011;61859;49.204;8.140;2023-06-22T12:59:15;5.57;;;3.70;;
73575;SDS011;61859;49.204;8.140;2023-06-22T13:01:42;4.95;;;3.70;;
73575;SDS011;61859;49.204;8.140;2023-06-22T13:04:08;6.70;;;4.13;;
73575;SDS011;61859;49.204;8.140;2023-06-22T13:06:36;6.78;;;3.95;;
73575;SDS011;61859;49.204;8.140;2023-06-22T13:09:01;4.70;;;3.53;;
73575;SDS011;61859;49.204;8.140;2023-06-22T13:11:30;4.07;;;3.65;;
73575;SDS011;61859;49.204;8.140;2023-06-22T13:13:55;8.20;;;3.85;;
73575;SDS011;61859;49.204;8.140;2023-06-22T13:16:21;7.57;;;4.22;;
73575;SDS011;61859;49.204;8.140;2023-06-22T13:18:46;6.05;;;4.28;;
73575;SDS011;61859;49.204;8.140;2023-06-22T13:21:12;4.75;;;3.45;;
73575;SDS011;61859;49.204;8.140;2023-06-22T13:23:38;6.80;;;3.65;;
73575;SDS011;61859;49.204;8.140;2023-06-22T13:26:04;4.28;;;3.42;;
73575;SDS011;61859;49.204;8.140;2023-06-22T13:28:29;7.38;;;3.85;;
73575;SDS011;61859;49.204;8.140;2023-06-22T13:30:55;6.75;;;3.40;;
73575;SDS011;61859;49.204;8.140;2023-06-22T13:33:20;6.50;;;3.63;;
73575;SDS011;61859;49.204;8.140;2023-06-22T13:35:46;4.88;;;3.45;;
73575;SDS011;61859;49.204;8.140;2023-06-22T13:38:11;6.85;;;3.13;;
73575;SDS011;61859;49.204;8.140;2023-06-22T13:40:37;6.78;;;3.55;;
73575;SDS011;61859;49.204;8.140;2023-06-22T13:43:03;8.57;;;3.45;;
73575;SDS011;61859;49.204;8.140;2023-06-22T13:45:29;4.53;;;3.45;;
73575;SDS011;61859;49.204;8.140;2023-06-22T13:47:56;9.50;;;4.25;;
73575;SDS011;61859;49.204;8.140;2023-06-22T13:50:22;6.82;;;4.00;;
73575;SDS011;61859;49.204;8.140;2023-06-22T13:52:47;7.57;;;3.65;;
73575;SDS011;61859;49.204;8.140;2023-06-22T13:55:13;6.63;;;3.97;;
73575;SDS011;61859;49.204;8.140;2023-06-22T13:57:39;5.25;;;3.70;;
73575;SDS011;61859;49.204;8.140;2023-06-22T14:00:05;13.70;;;4.95;;
73575;SDS011;61859;49.204;8.140;2023-06-22T14:02:33;7.35;;;4.93;;
73575;SDS011;61859;49.204;8.140;2023-06-22T14:04:59;10.18;;;6.50;;
73575;SDS011;61859;49.204;8.140;2023-06-22T14:07:24;7.18;;;5.40;;
73575;SDS011;61859;49.204;8.140;2023-06-22T14:09:50;9.48;;;5.25;;
73575;SDS011;61859;49.204;8.140;2023-06-22T14:12:15;11.63;;;5.85;;
73575;SDS011;61859;49.204;8.140;2023-06-22T14:14:43;7.78;;;5.97;;
73575;SDS011;61859;49.204;8.140;2023-06-22T14:17:08;11.50;;;6.28;;
73575;SDS011;61859;49.204;8.140;2023-06-22T14:19:34;9.25;;;5.85;;
73575;SDS011;61859;49.204;8.140;2023-06-22T14:22:00;8.82;;;5.63;;
73575;SDS011;61859;49.204;8.140;2023-06-22T14:24:25;8.77;;;5.18;;
73575;SDS011;61859;49.204;8.140;2023-06-22T14:26:51;11.93;;;5.20;;
73575;SDS011;61859;49.204;8.140;2023-06-22T14:29:17;10.27;;;5.90;;
73575;SDS011;61859;49.204;8.140;2023-06-22T14:31:44;13.57;;;5.38;;
73575;SDS011;61859;49.204;8.140;2023-06-22T14:34:11;8.90;;;4.88;;
73575;SDS011;61859;49.204;8.140;2023-06-22T14:36:36;7.03;;;4.78;;
73575;SDS011;61859;49.204;8.140;2023-06-22T14:39:02;10.75;;;5.50;;
73575;SDS011;61859;49.204;8.140;2023-06-22T14:41:27;9.68;;;5.15;;
73575;SDS011;61859;49.204;8.140;2023-06-22T14:43:54;9.45;;;5.22;;
73575;SDS011;61859;49.204;8.140;2023-06-22T14:46:19;8.32;;;4.78;;
73575;SDS011;61859;49.204;8.140;2023-06-22T14:48:45;9.90;;;5.93;;
73575;SDS011;61859;49.204;8.140;2023-06-22T14:51:11;8.27;;;5.47;;